createdAt,value
2023-01-12T00:00:17.351Z,73488.66
2023-01-12T00:00:49.634Z,73488.66
2023-01-12T00:01:24.726Z,73492.66
2023-01-12T00:01:57.030Z,73498.66
2023-01-12T00:02:32.084Z,73496.66
2023-01-12T00:03:04.523Z,73484.66
2023-01-12T00:03:36.775Z,73498.66
2023-01-12T00:04:11.970Z,73494.66
2023-01-12T00:04:47.047Z,73494.66
2023-01-12T00:05:19.284Z,73500.63
2023-01-12T00:05:51.496Z,73504.63
2023-01-12T00:06:26.979Z,73496.66
2023-01-12T00:06:59.278Z,73500.63
2023-01-12T00:07:34.150Z,73500.63
2023-01-12T00:08:06.495Z,73496.66
2023-01-12T00:08:39.001Z,73492.66
2023-01-12T00:09:16.453Z,73492.66
2023-01-12T00:09:49.167Z,73490.66
2023-01-12T00:10:21.491Z,73496.66
2023-01-12T00:10:58.464Z,73492.66
2023-01-12T00:11:31.178Z,73492.66
2023-01-12T00:12:06.158Z,73500.63
2023-01-12T00:12:41.116Z,73502.63
2023-01-12T00:13:13.416Z,73496.66
2023-01-12T00:13:45.979Z,73492.66
2023-01-12T00:14:18.287Z,73504.63
2023-01-12T00:14:53.304Z,73496.66
2023-01-12T00:15:56.541Z,73494.66
2023-01-12T00:16:38.148Z,73500.63
2023-01-12T00:17:16.961Z,73496.66
2023-01-12T00:17:49.283Z,73488.66
2023-01-12T00:18:21.519Z,73490.66
2023-01-12T00:18:53.769Z,73486.66
2023-01-12T00:19:28.669Z,73496.66
2023-01-12T00:20:00.919Z,73496.66
2023-01-12T00:20:33.240Z,73492.66
2023-01-12T00:21:08.432Z,73496.66
2023-01-12T00:21:50.204Z,73498.66
2023-01-12T00:22:25.022Z,73492.66
2023-01-12T00:22:58.406Z,73496.66
2023-01-12T00:23:30.624Z,73492.66
2023-01-12T00:24:02.888Z,73496.66
2023-01-12T00:24:41.383Z,73488.66
2023-01-12T00:25:13.796Z,73494.66
2023-01-12T00:25:50.936Z,73500.63
2023-01-12T00:26:23.214Z,73492.66
2023-01-12T00:26:58.981Z,73494.66
2023-01-12T00:27:31.211Z,73496.66
2023-01-12T00:28:03.529Z,73496.66
2023-01-12T00:28:36.089Z,73496.66
2023-01-12T00:29:10.903Z,73496.66
2023-01-12T00:29:43.158Z,73500.63
2023-01-12T00:30:18.230Z,73496.66
2023-01-12T00:30:50.483Z,73496.66
2023-01-12T00:31:22.810Z,73500.63
2023-01-12T00:31:56.369Z,73498.66
2023-01-12T00:32:31.223Z,73496.66
2023-01-12T00:33:03.643Z,73500.63
2023-01-12T00:33:35.962Z,73500.63
2023-01-12T00:34:08.462Z,73500.63
2023-01-12T00:34:43.348Z,73496.66
2023-01-12T00:35:17.376Z,73500.63
2023-01-12T00:35:49.605Z,73492.66
2023-01-12T00:36:24.619Z,73488.66
2023-01-12T00:36:56.977Z,73492.66
2023-01-12T00:37:29.213Z,73490.66
2023-01-12T00:38:06.425Z,73488.66
2023-01-12T00:38:38.788Z,73488.66
2023-01-12T00:39:11.110Z,73484.66
2023-01-12T00:40:01.572Z,73492.66
2023-01-12T00:40:36.368Z,73484.66
2023-01-12T00:41:09.643Z,73488.66
2023-01-12T00:41:57.052Z,73488.66
2023-01-12T00:42:44.286Z,73488.66
2023-01-12T00:43:31.533Z,73484.66
2023-01-12T00:44:18.918Z,73488.66
2023-01-12T00:45:06.142Z,73492.66
2023-01-12T00:45:40.992Z,73482.69
2023-01-12T00:46:13.317Z,73492.66
2023-01-12T00:46:45.987Z,73490.66
2023-01-12T00:47:21.576Z,73494.66
2023-01-12T00:47:53.906Z,73490.66
2023-01-12T00:48:26.230Z,73496.66
2023-01-12T00:48:58.551Z,73498.66
2023-01-12T00:49:33.374Z,73500.63
2023-01-12T00:50:06.266Z,73496.66
2023-01-12T00:50:41.135Z,73508.63
2023-01-12T00:51:13.370Z,73504.63
2023-01-12T00:51:45.636Z,73500.63
2023-01-12T00:52:30.826Z,73496.66
2023-01-12T00:53:03.815Z,73504.63
2023-01-12T00:53:36.297Z,73504.63
2023-01-12T00:54:11.204Z,73502.63
2023-01-12T00:54:46.139Z,73510.63
2023-01-12T00:55:21.112Z,73516.59
2023-01-12T00:55:53.333Z,73508.63
2023-01-12T00:56:25.590Z,73510.63
2023-01-12T00:56:57.853Z,73514.63
2023-01-12T00:57:32.673Z,73516.59
2023-01-12T00:58:05.181Z,73512.63
2023-01-12T00:58:37.443Z,73512.63
2023-01-12T00:59:09.675Z,73512.63
2023-01-12T00:59:44.811Z,73510.63
2023-01-12T01:00:18.011Z,73520.59
2023-01-12T01:00:50.360Z,73520.59
2023-01-12T01:01:25.443Z,73520.59
2023-01-12T01:01:57.760Z,73516.59
2023-01-12T01:02:32.641Z,73524.59
2023-01-12T01:03:04.951Z,73522.59
2023-01-12T01:03:37.284Z,73522.59
2023-01-12T01:04:09.584Z,73518.59
2023-01-12T01:04:44.407Z,73520.59
2023-01-12T01:05:17.949Z,73526.59
2023-01-12T01:05:50.213Z,73522.59
2023-01-12T01:06:25.364Z,73526.59
2023-01-12T01:06:57.586Z,73524.59
2023-01-12T01:07:32.431Z,73524.59
2023-01-12T01:08:04.987Z,73528.59
2023-01-12T01:08:37.919Z,73528.59
2023-01-12T01:09:10.253Z,73532.59
2023-01-12T01:09:45.208Z,73536.56
2023-01-12T01:10:20.308Z,73524.59
2023-01-12T01:11:01.540Z,73534.56
2023-01-12T01:11:36.576Z,73540.56
2023-01-12T01:12:08.803Z,73534.56
2023-01-12T01:12:41.075Z,73538.56
2023-01-12T01:13:15.880Z,73536.56
2023-01-12T01:13:49.244Z,73536.56
2023-01-12T01:14:24.096Z,73542.56
2023-01-12T01:14:56.350Z,73540.56
2023-01-12T01:15:28.575Z,73538.56
2023-01-12T01:16:01.058Z,73536.56
2023-01-12T01:16:36.403Z,73542.56
2023-01-12T01:17:08.707Z,73536.56
2023-01-12T01:17:43.615Z,73532.59
2023-01-12T01:18:15.835Z,73538.56
2023-01-12T01:18:48.105Z,73536.56
2023-01-12T01:19:23.021Z,73540.56
2023-01-12T01:19:55.243Z,73542.56
2023-01-12T01:20:27.561Z,73540.56
2023-01-12T01:20:59.828Z,73538.56
2023-01-12T01:21:35.073Z,73540.56
2023-01-12T01:22:07.300Z,73534.56
2023-01-12T01:22:39.559Z,73534.56
2023-01-12T01:23:14.376Z,73534.56
2023-01-12T01:23:46.615Z,73540.56
2023-01-12T01:24:21.446Z,73544.56
2023-01-12T01:24:53.733Z,73544.56
2023-01-12T01:25:28.564Z,73538.56
2023-01-12T01:26:03.182Z,73534.56
2023-01-12T01:26:37.998Z,73534.56
2023-01-12T01:27:10.289Z,73532.59
2023-01-12T01:27:42.567Z,73536.56
2023-01-12T01:28:17.651Z,73536.56
2023-01-12T01:28:50.866Z,73542.56
2023-01-12T01:29:25.843Z,73544.56
2023-01-12T01:29:58.137Z,73544.56
2023-01-12T01:30:30.420Z,73542.56
2023-01-12T01:31:06.240Z,73544.56
2023-01-12T01:31:41.099Z,73552.53
2023-01-12T01:32:13.397Z,73544.56
2023-01-12T01:32:45.603Z,73556.53
2023-01-12T01:33:17.818Z,73544.56
2023-01-12T01:33:53.455Z,73548.56
2023-01-12T01:34:25.732Z,73548.56
2023-01-12T01:34:57.980Z,73554.53
2023-01-12T01:35:32.808Z,73556.53
2023-01-12T01:36:05.320Z,73558.53
2023-01-12T01:36:37.538Z,73548.56
2023-01-12T01:37:13.109Z,73548.56
2023-01-12T01:37:45.326Z,73552.53
2023-01-12T01:38:17.739Z,73554.53
2023-01-12T01:38:53.383Z,73552.53
2023-01-12T01:39:25.632Z,73556.53
2023-01-12T01:39:57.880Z,73556.53
2023-01-12T01:40:35.955Z,73562.53
2023-01-12T01:41:08.183Z,73552.53
2023-01-12T01:41:42.783Z,73556.53
2023-01-12T01:42:28.340Z,73556.53
2023-01-12T01:43:00.797Z,73552.53
2023-01-12T01:43:49.823Z,73548.56
2023-01-12T01:44:53.581Z,73556.53
2023-01-12T01:45:26.091Z,73556.53
2023-01-12T01:46:02.138Z,73548.56
2023-01-12T01:46:41.810Z,73556.53
2023-01-12T01:47:20.139Z,73554.53
2023-01-12T01:47:58.340Z,73548.56
2023-01-12T01:48:33.005Z,73552.53
2023-01-12T01:49:28.656Z,73552.53
2023-01-12T01:50:07.692Z,73546.56
2023-01-12T01:50:42.579Z,73548.56
2023-01-12T01:51:15.990Z,73550.56
2023-01-12T01:51:50.901Z,73552.53
2023-01-12T01:52:26.411Z,73556.53
2023-01-12T01:53:03.845Z,73554.53
2023-01-12T01:53:38.635Z,73556.53
2023-01-12T01:54:11.194Z,73558.53
2023-01-12T01:54:49.218Z,73552.53
2023-01-12T01:55:23.096Z,73552.53
2023-01-12T01:56:01.968Z,73554.53
2023-01-12T01:56:37.503Z,73556.53
2023-01-12T01:57:10.234Z,73550.56
2023-01-12T01:57:48.859Z,73552.53
2023-01-12T01:58:27.164Z,73556.53
2023-01-12T01:59:02.384Z,73556.53
2023-01-12T01:59:36.635Z,73552.53
2023-01-12T02:00:14.246Z,73554.53
2023-01-12T02:00:46.797Z,73552.53
2023-01-12T02:01:19.143Z,73552.53
2023-01-12T02:01:54.305Z,73552.53
2023-01-12T02:02:27.124Z,73554.53
2023-01-12T02:03:00.548Z,73556.53
2023-01-12T02:03:36.948Z,73550.56
2023-01-12T02:04:09.415Z,73552.53
2023-01-12T02:04:41.833Z,73552.53
2023-01-12T02:05:17.056Z,73550.56
2023-01-12T02:05:49.561Z,73552.53
2023-01-12T02:06:23.607Z,73556.53
2023-01-12T02:06:59.453Z,73556.53
2023-01-12T02:07:31.992Z,73552.53
2023-01-12T02:08:13.659Z,73556.53
2023-01-12T02:08:48.640Z,73554.53
2023-01-12T02:09:23.018Z,73556.53
2023-01-12T02:09:57.896Z,73558.53
2023-01-12T02:10:30.158Z,73560.53
2023-01-12T02:11:28.223Z,73564.53
2023-01-12T02:12:15.542Z,73560.53
2023-01-12T02:13:02.883Z,73564.53
2023-01-12T02:13:50.198Z,73562.53
2023-01-12T02:14:37.471Z,73568.50
2023-01-12T02:15:25.374Z,73558.53
2023-01-12T02:16:16.096Z,73562.53
2023-01-12T02:17:01.169Z,73560.53
2023-01-12T02:17:42.064Z,73560.53
2023-01-12T02:18:21.268Z,73556.53
2023-01-12T02:19:10.715Z,73564.53
2023-01-12T02:20:18.428Z,73562.53
2023-01-12T02:21:00.163Z,73562.53
2023-01-12T02:21:54.949Z,73564.53
2023-01-12T02:23:03.211Z,73564.53
2023-01-12T02:24:07.031Z,73564.53
2023-01-12T02:25:16.203Z,73560.53
2023-01-12T02:26:16.696Z,73564.53
2023-01-12T02:27:14.400Z,73564.53
2023-01-12T02:28:11.728Z,73566.53
2023-01-12T02:29:12.603Z,73570.50
2023-01-12T02:30:14.751Z,73578.50
2023-01-12T02:31:10.279Z,73570.50
2023-01-12T02:31:52.568Z,73572.50
2023-01-12T02:32:31.924Z,73564.53
2023-01-12T02:33:13.669Z,73564.53
2023-01-12T02:33:54.251Z,73566.53
2023-01-12T02:34:34.046Z,73572.50
2023-01-12T02:35:12.957Z,73564.53
2023-01-12T02:35:53.894Z,73572.50
2023-01-12T02:36:32.151Z,73568.50
2023-01-12T02:37:12.861Z,73564.53
2023-01-12T02:37:51.515Z,73562.53
2023-01-12T02:38:29.132Z,73560.53
2023-01-12T02:39:05.334Z,73558.53
2023-01-12T02:39:46.385Z,73560.53
2023-01-12T02:40:22.859Z,73562.53
2023-01-12T02:41:00.324Z,73570.50
2023-01-12T02:41:51.883Z,73564.53
2023-01-12T02:42:45.062Z,73562.53
2023-01-12T02:43:22.422Z,73566.53
2023-01-12T02:43:54.931Z,73576.50
2023-01-12T02:44:30.122Z,73566.53
2023-01-12T02:45:09.566Z,73568.50
2023-01-12T02:45:49.669Z,73568.50
2023-01-12T02:46:28.088Z,73568.50
2023-01-12T02:47:02.126Z,73568.50
2023-01-12T02:47:41.419Z,73560.53
2023-01-12T02:48:16.794Z,73568.50
2023-01-12T02:48:52.100Z,73568.50
2023-01-12T02:49:30.304Z,73564.53
2023-01-12T02:50:04.544Z,73566.53
2023-01-12T02:50:56.043Z,73568.50
2023-01-12T02:51:33.485Z,73572.50
2023-01-12T02:52:09.289Z,73576.50
2023-01-12T02:52:47.396Z,73566.53
2023-01-12T02:53:24.408Z,73568.50
2023-01-12T02:54:02.725Z,73570.50
2023-01-12T02:54:36.561Z,73564.53
2023-01-12T02:55:09.973Z,73568.50
2023-01-12T02:55:45.007Z,73562.53
2023-01-12T02:56:22.654Z,73564.53
2023-01-12T02:56:57.043Z,73564.53
2023-01-12T02:57:33.166Z,73564.53
2023-01-12T02:58:07.664Z,73568.50
2023-01-12T02:58:44.274Z,73566.53
2023-01-12T02:59:21.615Z,73570.50
2023-01-12T02:59:54.933Z,73568.50
2023-01-12T03:00:27.303Z,73566.53
2023-01-12T03:01:02.860Z,73564.53
2023-01-12T03:01:38.204Z,73568.50
2023-01-12T03:02:12.133Z,73566.53
2023-01-12T03:02:47.092Z,73568.50
2023-01-12T03:03:19.981Z,73568.50
2023-01-12T03:03:53.660Z,73568.50
2023-01-12T03:04:30.239Z,73568.50
2023-01-12T03:05:02.985Z,73564.53
2023-01-12T03:05:35.202Z,73568.50
2023-01-12T03:06:11.012Z,73564.53
2023-01-12T03:06:45.795Z,73560.53
2023-01-12T03:07:38.020Z,73566.53
2023-01-12T03:08:15.309Z,73568.50
2023-01-12T03:08:49.830Z,73562.53
2023-01-12T03:09:23.203Z,73566.53
2023-01-12T03:10:01.461Z,73564.53
2023-01-12T03:11:00.337Z,73560.53
2023-01-12T03:11:35.238Z,73562.53
2023-01-12T03:12:10.767Z,73560.53
2023-01-12T03:12:44.284Z,73564.53
2023-01-12T03:13:19.535Z,73562.53
2023-01-12T03:13:54.951Z,73562.53
2023-01-12T03:14:27.558Z,73560.53
2023-01-12T03:15:05.375Z,73558.53
2023-01-12T03:15:40.245Z,73560.53
2023-01-12T03:16:16.666Z,73556.53
2023-01-12T03:16:51.960Z,73564.53
2023-01-12T03:17:26.553Z,73560.53
2023-01-12T03:18:04.975Z,73564.53
2023-01-12T03:18:39.406Z,73564.53
2023-01-12T03:19:19.412Z,73570.50
2023-01-12T03:19:53.363Z,73568.50
2023-01-12T03:20:28.600Z,73564.53
2023-01-12T03:21:07.995Z,73564.53
2023-01-12T03:21:43.068Z,73562.53
2023-01-12T03:22:15.745Z,73564.53
2023-01-12T03:22:52.100Z,73572.50
2023-01-12T03:23:27.994Z,73568.50
2023-01-12T03:24:05.850Z,73568.50
2023-01-12T03:24:41.187Z,73564.53
2023-01-12T03:25:15.849Z,73568.50
2023-01-12T03:25:52.071Z,73564.53
2023-01-12T03:26:27.949Z,73560.53
2023-01-12T03:27:03.101Z,73566.53
2023-01-12T03:27:41.212Z,73558.53
2023-01-12T03:28:15.101Z,73564.53
2023-01-12T03:28:50.792Z,73564.53
2023-01-12T03:29:30.105Z,73564.53
2023-01-12T03:30:06.268Z,73568.50
2023-01-12T03:30:40.670Z,73564.53
2023-01-12T03:31:16.371Z,73568.50
2023-01-12T03:31:51.299Z,73562.53
2023-01-12T03:32:23.712Z,73562.53
2023-01-12T03:32:56.178Z,73564.53
2023-01-12T03:33:31.195Z,73560.53
2023-01-12T03:34:03.510Z,73560.53
2023-01-12T03:34:36.792Z,73560.53
2023-01-12T03:35:09.634Z,73560.53
2023-01-12T03:35:54.556Z,73560.53
2023-01-12T03:36:34.066Z,73560.53
2023-01-12T03:37:12.773Z,73560.53
2023-01-12T03:37:48.458Z,73566.53
2023-01-12T03:38:25.330Z,73560.53
2023-01-12T03:39:05.992Z,73562.53
2023-01-12T03:39:42.675Z,73556.53
2023-01-12T03:40:19.444Z,73556.53
2023-01-12T03:41:02.566Z,73556.53
2023-01-12T03:41:40.836Z,73552.53
2023-01-12T03:42:20.547Z,73556.53
2023-01-12T03:42:56.867Z,73554.53
2023-01-12T03:43:31.934Z,73556.53
2023-01-12T03:44:08.522Z,73556.53
2023-01-12T03:44:46.787Z,73558.53
2023-01-12T03:45:24.116Z,73546.56
2023-01-12T03:46:02.184Z,73552.53
2023-01-12T03:46:36.955Z,73554.53
2023-01-12T03:47:14.242Z,73552.53
2023-01-12T03:47:50.838Z,73558.53
2023-01-12T03:48:26.226Z,73552.53
2023-01-12T03:49:02.510Z,73548.56
2023-01-12T03:49:41.022Z,73556.53
2023-01-12T03:50:15.398Z,73560.53
2023-01-12T03:50:49.788Z,73552.53
2023-01-12T03:51:28.222Z,73550.56
2023-01-12T03:52:01.896Z,73548.56
2023-01-12T03:52:35.506Z,73548.56
2023-01-12T03:53:11.277Z,73552.53
2023-01-12T03:53:44.778Z,73544.56
2023-01-12T03:54:17.818Z,73538.56
2023-01-12T03:54:53.026Z,73544.56
2023-01-12T03:55:28.539Z,73538.56
2023-01-12T03:56:04.122Z,73540.56
2023-01-12T03:56:39.457Z,73536.56
2023-01-12T03:57:12.416Z,73540.56
2023-01-12T03:57:45.343Z,73536.56
2023-01-12T03:58:20.667Z,73536.56
2023-01-12T03:58:53.302Z,73536.56
2023-01-12T03:59:25.576Z,73536.56
2023-01-12T04:00:00.704Z,73536.56
2023-01-12T04:00:33.026Z,73536.56
2023-01-12T04:01:06.431Z,73528.59
2023-01-12T04:01:42.105Z,73526.59
2023-01-12T04:02:17.110Z,73532.59
2023-01-12T04:02:49.334Z,73528.59
2023-01-12T04:03:25.836Z,73522.59
2023-01-12T04:03:58.160Z,73524.59
2023-01-12T04:04:30.411Z,73520.59
2023-01-12T04:05:05.253Z,73524.59
2023-01-12T04:05:38.037Z,73516.59
2023-01-12T04:06:10.345Z,73514.63
2023-01-12T04:06:45.174Z,73516.59
2023-01-12T04:07:17.569Z,73516.59
2023-01-12T04:07:49.794Z,73516.59
2023-01-12T04:08:24.844Z,73512.63
2023-01-12T04:08:57.074Z,73512.63
2023-01-12T04:09:29.304Z,73520.59
2023-01-12T04:10:04.137Z,73516.59
2023-01-12T04:10:36.556Z,73524.59
2023-01-12T04:11:23.700Z,73516.59
2023-01-12T04:12:11.016Z,73524.59
2023-01-12T04:12:45.978Z,73524.59
2023-01-12T04:13:18.234Z,73530.59
2023-01-12T04:13:50.460Z,73526.59
2023-01-12T04:14:22.704Z,73526.59
2023-01-12T04:14:57.523Z,73528.59
2023-01-12T04:15:29.783Z,73526.59
2023-01-12T04:16:02.033Z,73538.56
2023-01-12T04:16:36.966Z,73536.56
2023-01-12T04:17:10.824Z,73528.59
2023-01-12T04:17:45.667Z,73532.59
2023-01-12T04:18:20.695Z,73530.59
2023-01-12T04:18:52.922Z,73532.59
2023-01-12T04:19:25.153Z,73530.59
2023-01-12T04:19:57.499Z,73526.59
2023-01-12T04:20:33.060Z,73524.59
2023-01-12T04:21:05.807Z,73538.56
2023-01-12T04:21:53.033Z,73532.59
2023-01-12T04:22:40.247Z,73528.59
2023-01-12T04:23:12.500Z,73530.59
2023-01-12T04:23:45.277Z,73538.56
2023-01-12T04:24:17.499Z,73532.59
2023-01-12T04:24:52.533Z,73532.59
2023-01-12T04:25:24.805Z,73538.56
2023-01-12T04:25:57.027Z,73540.56
2023-01-12T04:26:29.350Z,73538.56
2023-01-12T04:27:04.188Z,73538.56
2023-01-12T04:27:36.491Z,73540.56
2023-01-12T04:28:11.363Z,73534.56
2023-01-12T04:28:43.586Z,73540.56
2023-01-12T04:29:15.797Z,73540.56
2023-01-12T04:29:50.651Z,73542.56
2023-01-12T04:30:27.155Z,73540.56
2023-01-12T04:30:59.378Z,73546.56
2023-01-12T04:31:34.230Z,73540.56
2023-01-12T04:32:06.700Z,73544.56
2023-01-12T04:32:39.048Z,73542.56
2023-01-12T04:33:16.489Z,73540.56
2023-01-12T04:33:48.815Z,73538.56
2023-01-12T04:34:21.101Z,73540.56
2023-01-12T04:34:55.954Z,73538.56
2023-01-12T04:35:28.239Z,73548.56
2023-01-12T04:36:00.488Z,73548.56
2023-01-12T04:36:35.308Z,73544.56
2023-01-12T04:37:07.526Z,73552.53
2023-01-12T04:37:39.794Z,73548.56
2023-01-12T04:38:16.876Z,73548.56
2023-01-12T04:38:49.293Z,73544.56
2023-01-12T04:39:21.510Z,73552.53
2023-01-12T04:39:56.619Z,73552.53
2023-01-12T04:40:28.875Z,73542.56
2023-01-12T04:41:01.133Z,73552.53
2023-01-12T04:41:35.961Z,73540.56
2023-01-12T04:42:29.175Z,73544.56
2023-01-12T04:43:01.506Z,73538.56
2023-01-12T04:43:33.938Z,73548.56
2023-01-12T04:44:08.829Z,73546.56
2023-01-12T04:44:41.060Z,73546.56
2023-01-12T04:45:13.356Z,73544.56
2023-01-12T04:45:48.206Z,73544.56
2023-01-12T04:46:20.482Z,73538.56
2023-01-12T04:46:52.715Z,73542.56
2023-01-12T04:47:27.551Z,73542.56
2023-01-12T04:48:02.963Z,73542.56
2023-01-12T04:48:43.691Z,73540.56
2023-01-12T04:49:16.000Z,73540.56
2023-01-12T04:49:48.223Z,73532.59
2023-01-12T04:50:23.045Z,73536.56
2023-01-12T04:50:55.284Z,73540.56
2023-01-12T04:51:30.150Z,73542.56
2023-01-12T04:52:02.358Z,73544.56
2023-01-12T04:52:35.075Z,73540.56
2023-01-12T04:53:08.582Z,73548.56
2023-01-12T04:53:43.540Z,73548.56
2023-01-12T04:54:15.940Z,73550.56
2023-01-12T04:54:48.194Z,73552.53
2023-01-12T04:55:23.008Z,73544.56
2023-01-12T04:55:55.287Z,73548.56
2023-01-12T04:56:27.552Z,73552.53
2023-01-12T04:57:02.408Z,73546.56
2023-01-12T04:57:34.635Z,73550.56
2023-01-12T04:58:07.013Z,73550.56
2023-01-12T04:58:42.354Z,73548.56
2023-01-12T04:59:14.585Z,73548.56
2023-01-12T04:59:46.859Z,73548.56
2023-01-12T05:00:22.811Z,73540.56
2023-01-12T05:00:55.052Z,73544.56
2023-01-12T05:01:28.565Z,73544.56
2023-01-12T05:02:03.583Z,73536.56
2023-01-12T05:02:35.832Z,73538.56
2023-01-12T05:03:10.315Z,73548.56
2023-01-12T05:03:48.341Z,73544.56
2023-01-12T05:04:20.713Z,73536.56
2023-01-12T05:04:53.011Z,73544.56
2023-01-12T05:05:27.966Z,73540.56
2023-01-12T05:06:02.074Z,73540.56
2023-01-12T05:06:34.322Z,73540.56
2023-01-12T05:07:09.271Z,73544.56
2023-01-12T05:08:02.231Z,73542.56
2023-01-12T05:08:49.695Z,73546.56
2023-01-12T05:09:36.934Z,73540.56
2023-01-12T05:10:22.762Z,73542.56
2023-01-12T05:10:56.579Z,73544.56
2023-01-12T05:11:32.282Z,73544.56
2023-01-12T05:12:05.268Z,73548.56
2023-01-12T05:12:37.508Z,73536.56
2023-01-12T05:13:09.750Z,73534.56
2023-01-12T05:13:44.619Z,73538.56
2023-01-12T05:14:16.841Z,73540.56
2023-01-12T05:14:49.650Z,73532.59
2023-01-12T05:15:24.508Z,73540.56
2023-01-12T05:15:57.753Z,73538.56
2023-01-12T05:16:30.136Z,73540.56
2023-01-12T05:17:05.117Z,73540.56
2023-01-12T05:17:37.378Z,73538.56
2023-01-12T05:18:09.696Z,73536.56
2023-01-12T05:18:47.715Z,73532.59
2023-01-12T05:19:19.976Z,73532.59
2023-01-12T05:19:54.843Z,73526.59
2023-01-12T05:20:27.159Z,73528.59
2023-01-12T05:20:59.380Z,73528.59
2023-01-12T05:21:34.205Z,73532.59
2023-01-12T05:22:06.468Z,73528.59
2023-01-12T05:22:38.696Z,73524.59
2023-01-12T05:23:13.530Z,73528.59
2023-01-12T05:23:46.202Z,73528.59
2023-01-12T05:24:18.650Z,73526.59
2023-01-12T05:24:53.475Z,73528.59
2023-01-12T05:25:26.927Z,73528.59
2023-01-12T05:26:00.547Z,73532.59
2023-01-12T05:26:35.438Z,73526.59
2023-01-12T05:27:07.677Z,73530.59
2023-01-12T05:27:39.896Z,73532.59
2023-01-12T05:28:14.710Z,73526.59
2023-01-12T05:28:48.870Z,73528.59
2023-01-12T05:29:21.126Z,73526.59
2023-01-12T05:29:57.188Z,73532.59
2023-01-12T05:30:31.697Z,73532.59
2023-01-12T05:31:06.242Z,73530.59
2023-01-12T05:31:41.109Z,73528.59
2023-01-12T05:32:13.415Z,73528.59
2023-01-12T05:32:45.999Z,73536.56
2023-01-12T05:33:19.489Z,73528.59
2023-01-12T05:33:57.062Z,73528.59
2023-01-12T05:34:29.308Z,73536.56
2023-01-12T05:35:01.535Z,73530.59
2023-01-12T05:35:33.802Z,73532.59
2023-01-12T05:36:09.881Z,73526.59
2023-01-12T05:36:42.087Z,73528.59
2023-01-12T05:37:14.358Z,73526.59
2023-01-12T05:37:49.657Z,73528.59
2023-01-12T05:38:21.892Z,73524.59
2023-01-12T05:38:54.131Z,73528.59
2023-01-12T05:39:28.992Z,73526.59
2023-01-12T05:40:01.594Z,73528.59
2023-01-12T05:40:33.831Z,73524.59
2023-01-12T05:41:10.346Z,73524.59
2023-01-12T05:42:03.063Z,73530.59
2023-01-12T05:42:50.291Z,73528.59
2023-01-12T05:43:37.522Z,73528.59
2023-01-12T05:44:09.866Z,73532.59
2023-01-12T05:44:42.087Z,73534.56
2023-01-12T05:45:16.959Z,73528.59
2023-01-12T05:45:49.219Z,73526.59
2023-01-12T05:46:23.096Z,73528.59
2023-01-12T05:46:57.988Z,73530.59
2023-01-12T05:47:30.200Z,73528.59
2023-01-12T05:48:02.465Z,73536.56
2023-01-12T05:48:37.388Z,73536.56
2023-01-12T05:49:12.375Z,73532.59
2023-01-12T05:49:44.611Z,73534.56
2023-01-12T05:50:19.447Z,73532.59
2023-01-12T05:51:12.607Z,73536.56
2023-01-12T05:51:47.475Z,73540.56
2023-01-12T05:52:19.977Z,73538.56
2023-01-12T05:52:55.063Z,73540.56
2023-01-12T05:53:27.298Z,73540.56
2023-01-12T05:53:59.516Z,73544.56
2023-01-12T05:54:34.445Z,73546.56
2023-01-12T05:55:07.694Z,73544.56
2023-01-12T05:55:39.980Z,73550.56
2023-01-12T05:56:19.808Z,73544.56
2023-01-12T05:56:52.085Z,73540.56
2023-01-12T05:57:24.311Z,73544.56
2023-01-12T05:57:59.140Z,73548.56
2023-01-12T05:58:31.385Z,73548.56
2023-01-12T05:59:04.579Z,73552.53
2023-01-12T05:59:39.412Z,73548.56
2023-01-12T06:00:12.930Z,73556.53
2023-01-12T06:00:45.633Z,73552.53
2023-01-12T06:01:20.555Z,73548.56
2023-01-12T06:01:53.429Z,73552.53
2023-01-12T06:02:25.848Z,73560.53
2023-01-12T06:03:00.755Z,73556.53
2023-01-12T06:03:33.027Z,73560.53
2023-01-12T06:04:05.473Z,73556.53
2023-01-12T06:04:43.001Z,73552.53
2023-01-12T06:05:15.354Z,73560.53
2023-01-12T06:05:53.288Z,73560.53
2023-01-12T06:06:31.445Z,73562.53
2023-01-12T06:07:03.820Z,73554.53
2023-01-12T06:07:36.191Z,73558.53
2023-01-12T06:08:11.253Z,73556.53
2023-01-12T06:08:43.502Z,73556.53
2023-01-12T06:09:18.327Z,73546.56
2023-01-12T06:09:50.550Z,73552.53
2023-01-12T06:10:22.788Z,73556.53
2023-01-12T06:10:57.624Z,73546.56
2023-01-12T06:11:45.173Z,73552.53
2023-01-12T06:12:32.379Z,73552.53
2023-01-12T06:13:19.594Z,73560.53
2023-01-12T06:13:58.042Z,73558.53
2023-01-12T06:14:30.936Z,73560.53
2023-01-12T06:15:05.887Z,73556.53
2023-01-12T06:15:38.167Z,73558.53
2023-01-12T06:16:13.053Z,73556.53
2023-01-12T06:16:45.541Z,73562.53
2023-01-12T06:17:17.808Z,73560.53
2023-01-12T06:17:52.643Z,73552.53
2023-01-12T06:18:24.878Z,73556.53
2023-01-12T06:18:59.839Z,73556.53
2023-01-12T06:19:32.129Z,73558.53
2023-01-12T06:20:08.989Z,73554.53
2023-01-12T06:20:43.806Z,73554.53
2023-01-12T06:21:16.190Z,73552.53
2023-01-12T06:21:48.478Z,73556.53
2023-01-12T06:22:23.333Z,73560.53
2023-01-12T06:22:55.655Z,73560.53
2023-01-12T06:23:35.148Z,73558.53
2023-01-12T06:24:11.458Z,73554.53
2023-01-12T06:24:46.070Z,73558.53
2023-01-12T06:25:18.392Z,73564.53
2023-01-12T06:25:53.258Z,73558.53
2023-01-12T06:26:25.511Z,73556.53
2023-01-12T06:27:00.440Z,73558.53
2023-01-12T06:27:35.427Z,73562.53
2023-01-12T06:28:10.279Z,73566.53
2023-01-12T06:28:43.045Z,73568.50
2023-01-12T06:29:15.329Z,73564.53
2023-01-12T06:29:50.795Z,73564.53
2023-01-12T06:30:23.130Z,73560.53
2023-01-12T06:30:56.867Z,73560.53
2023-01-12T06:31:31.764Z,73560.53
2023-01-12T06:32:04.440Z,73564.53
2023-01-12T06:32:41.644Z,73568.50
2023-01-12T06:33:14.580Z,73564.53
2023-01-12T06:33:49.640Z,73562.53
2023-01-12T06:34:21.861Z,73560.53
2023-01-12T06:34:54.124Z,73562.53
2023-01-12T06:35:31.547Z,73568.50
2023-01-12T06:36:04.661Z,73562.53
2023-01-12T06:36:36.938Z,73560.53
2023-01-12T06:37:13.188Z,73566.53
2023-01-12T06:37:45.533Z,73566.53
2023-01-12T06:38:19.034Z,73562.53
2023-01-12T06:38:53.986Z,73560.53
2023-01-12T06:39:26.217Z,73558.53
2023-01-12T06:39:58.485Z,73560.53
2023-01-12T06:40:33.344Z,73560.53
2023-01-12T06:41:07.713Z,73564.53
2023-01-12T06:41:55.022Z,73560.53
2023-01-12T06:42:30.020Z,73560.53
2023-01-12T06:43:04.870Z,73560.53
2023-01-12T06:43:37.183Z,73560.53
2023-01-12T06:44:09.397Z,73558.53
2023-01-12T06:44:44.233Z,73552.53
2023-01-12T06:45:16.622Z,73558.53
2023-01-12T06:45:51.457Z,73552.53
2023-01-12T06:46:23.751Z,73556.53
2023-01-12T06:46:55.982Z,73558.53
2023-01-12T06:47:31.596Z,73556.53
2023-01-12T06:48:04.551Z,73552.53
2023-01-12T06:48:38.965Z,73552.53
2023-01-12T06:49:16.621Z,73554.53
2023-01-12T06:49:51.635Z,73560.53
2023-01-12T06:50:23.911Z,73552.53
2023-01-12T06:51:05.140Z,73560.53
2023-01-12T06:51:37.375Z,73560.53
2023-01-12T06:52:09.644Z,73556.53
2023-01-12T06:52:44.753Z,73552.53
2023-01-12T06:53:17.006Z,73558.53
2023-01-12T06:53:49.245Z,73552.53
2023-01-12T06:54:24.074Z,73556.53
2023-01-12T06:54:56.730Z,73558.53
2023-01-12T06:55:29.517Z,73558.53
2023-01-12T06:56:04.344Z,73552.53
2023-01-12T06:56:36.563Z,73554.53
2023-01-12T06:57:11.427Z,73550.56
2023-01-12T06:57:43.699Z,73556.53
2023-01-12T06:58:15.935Z,73556.53
2023-01-12T06:58:50.828Z,73544.56
2023-01-12T06:59:23.067Z,73548.56